sensor_id;sensor_type;location;lat;lon;timestamp;P1;durP1;ratioP1;P2;durP2;ratioP2
11267;SDS011;49397;47.474;9.416;2022-12-07T00:01:29;32.40;;;17.50;;
11267;SDS011;49397;47.474;9.416;2022-12-07T00:03:57;36.20;;;19.47;;
11267;SDS011;49397;47.474;9.416;2022-12-07T00:06:30;39.50;;;19.03;;
11267;SDS011;49397;47.474;9.416;2022-12-07T00:09:03;32.00;;;17.50;;
11267;SDS011;49397;47.474;9.416;2022-12-07T00:11:30;34.40;;;17.70;;
11267;SDS011;49397;47.474;9.416;2022-12-07T00:13:56;32.13;;;17.13;;
11267;SDS011;49397;47.474;9.416;2022-12-07T00:16:24;34.23;;;17.17;;
11267;SDS011;49397;47.474;9.416;2022-12-07T00:18:52;34.80;;;16.67;;
11267;SDS011;49397;47.474;9.416;2022-12-07T00:21:22;34.67;;;17.23;;
11267;SDS011;49397;47.474;9.416;2022-12-07T00:23:58;33.03;;;15.67;;
11267;SDS011;49397;47.474;9.416;2022-12-07T00:26:25;32.33;;;16.03;;
11267;SDS011;49397;47.474;9.416;2022-12-07T00:28:57;30.17;;;18.17;;
11267;SDS011;49397;47.474;9.416;2022-12-07T00:31:28;34.53;;;18.00;;
11267;SDS011;49397;47.474;9.416;2022-12-07T00:33:56;30.97;;;16.40;;
11267;SDS011;49397;47.474;9.416;2022-12-07T00:36:23;31.60;;;15.63;;
11267;SDS011;49397;47.474;9.416;2022-12-07T00:38:50;33.87;;;17.13;;
11267;SDS011;49397;47.474;9.416;2022-12-07T00:41:16;29.53;;;18.03;;
11267;SDS011;49397;47.474;9.416;2022-12-07T00:43:44;29.33;;;16.87;;
11267;SDS011;49397;47.474;9.416;2022-12-07T00:46:10;33.23;;;17.23;;
11267;SDS011;49397;47.474;9.416;2022-12-07T00:48:36;36.40;;;19.93;;
11267;SDS011;49397;47.474;9.416;2022-12-07T00:51:02;36.83;;;17.60;;
11267;SDS011;49397;47.474;9.416;2022-12-07T00:53:28;35.97;;;17.53;;
11267;SDS011;49397;47.474;9.416;2022-12-07T00:55:54;34.00;;;18.67;;
11267;SDS011;49397;47.474;9.416;2022-12-07T00:58:21;30.30;;;17.63;;
11267;SDS011;49397;47.474;9.416;2022-12-07T01:00:48;33.37;;;17.90;;
11267;SDS011;49397;47.474;9.416;2022-12-07T01:03:14;36.77;;;19.03;;
11267;SDS011;49397;47.474;9.416;2022-12-07T01:05:48;37.77;;;17.20;;
11267;SDS011;49397;47.474;9.416;2022-12-07T01:08:15;35.13;;;17.70;;
11267;SDS011;49397;47.474;9.416;2022-12-07T01:10:41;35.77;;;17.90;;
11267;SDS011;49397;47.474;9.416;2022-12-07T01:13:06;35.37;;;17.43;;
11267;SDS011;49397;47.474;9.416;2022-12-07T01:15:32;39.77;;;18.53;;
11267;SDS011;49397;47.474;9.416;2022-12-07T01:17:57;36.50;;;17.03;;
11267;SDS011;49397;47.474;9.416;2022-12-07T01:20:22;35.13;;;17.47;;
11267;SDS011;49397;47.474;9.416;2022-12-07T01:22:48;36.50;;;17.00;;
11267;SDS011;49397;47.474;9.416;2022-12-07T01:25:14;30.83;;;16.77;;
11267;SDS011;49397;47.474;9.416;2022-12-07T01:27:39;31.27;;;16.63;;
11267;SDS011;49397;47.474;9.416;2022-12-07T01:30:05;43.87;;;20.30;;
11267;SDS011;49397;47.474;9.416;2022-12-07T01:32:32;32.13;;;18.00;;
11267;SDS011;49397;47.474;9.416;2022-12-07T01:34:59;36.83;;;18.87;;
11267;SDS011;49397;47.474;9.416;2022-12-07T01:37:24;30.93;;;18.10;;
11267;SDS011;49397;47.474;9.416;2022-12-07T01:39:50;36.33;;;17.07;;
11267;SDS011;49397;47.474;9.416;2022-12-07T01:42:17;33.53;;;17.60;;
11267;SDS011;49397;47.474;9.416;2022-12-07T01:47:40;41.60;;;18.87;;
11267;SDS011;49397;47.474;9.416;2022-12-07T01:50:08;34.20;;;17.33;;
11267;SDS011;49397;47.474;9.416;2022-12-07T01:52:35;35.40;;;19.33;;
11267;SDS011;49397;47.474;9.416;2022-12-07T01:55:04;44.63;;;20.47;;
11267;SDS011;49397;47.474;9.416;2022-12-07T01:57:37;36.33;;;17.47;;
11267;SDS011;49397;47.474;9.416;2022-12-07T02:00:06;38.10;;;18.00;;
11267;SDS011;49397;47.474;9.416;2022-12-07T02:02:34;39.67;;;18.30;;
11267;SDS011;49397;47.474;9.416;2022-12-07T02:05:03;36.53;;;17.47;;
11267;SDS011;49397;47.474;9.416;2022-12-07T02:07:30;33.13;;;17.03;;
11267;SDS011;49397;47.474;9.416;2022-12-07T02:10:11;33.70;;;17.20;;
11267;SDS011;49397;47.474;9.416;2022-12-07T02:12:38;43.00;;;19.50;;
11267;SDS011;49397;47.474;9.416;2022-12-07T02:15:04;36.80;;;16.93;;
11267;SDS011;49397;47.474;9.416;2022-12-07T02:31:38;37.00;;;18.57;;
11267;SDS011;49397;47.474;9.416;2022-12-07T02:34:19;33.13;;;16.93;;
11267;SDS011;49397;47.474;9.416;2022-12-07T02:36:55;35.60;;;17.37;;
11267;SDS011;49397;47.474;9.416;2022-12-07T02:39:31;35.00;;;17.13;;
11267;SDS011;49397;47.474;9.416;2022-12-07T02:42:08;35.60;;;17.50;;
11267;SDS011;49397;47.474;9.416;2022-12-07T02:44:39;27.83;;;16.07;;
11267;SDS011;49397;47.474;9.416;2022-12-07T02:47:06;36.37;;;17.87;;
11267;SDS011;49397;47.474;9.416;2022-12-07T02:49:36;44.40;;;18.37;;
11267;SDS011;49397;47.474;9.416;2022-12-07T02:52:04;34.07;;;18.20;;
11267;SDS011;49397;47.474;9.416;2022-12-07T02:54:29;30.30;;;16.50;;
11267;SDS011;49397;47.474;9.416;2022-12-07T02:59:44;35.57;;;16.03;;
11267;SDS011;49397;47.474;9.416;2022-12-07T03:13:06;37.00;;;17.23;;
11267;SDS011;49397;47.474;9.416;2022-12-07T03:18:21;31.17;;;17.37;;
11267;SDS011;49397;47.474;9.416;2022-12-07T03:20:49;30.40;;;16.73;;
11267;SDS011;49397;47.474;9.416;2022-12-07T03:23:18;34.10;;;17.63;;
11267;SDS011;49397;47.474;9.416;2022-12-07T03:25:47;33.23;;;17.33;;
11267;SDS011;49397;47.474;9.416;2022-12-07T03:28:18;31.10;;;16.57;;
11267;SDS011;49397;47.474;9.416;2022-12-07T03:30:51;30.63;;;16.67;;
11267;SDS011;49397;47.474;9.416;2022-12-07T03:33:29;25.87;;;14.57;;
11267;SDS011;49397;47.474;9.416;2022-12-07T03:36:07;30.80;;;17.20;;
11267;SDS011;49397;47.474;9.416;2022-12-07T03:38:44;32.03;;;16.63;;
11267;SDS011;49397;47.474;9.416;2022-12-07T03:41:14;35.33;;;17.53;;
11267;SDS011;49397;47.474;9.416;2022-12-07T03:43:43;32.13;;;17.17;;
11267;SDS011;49397;47.474;9.416;2022-12-07T03:51:21;34.40;;;17.57;;
11267;SDS011;49397;47.474;9.416;2022-12-07T03:53:53;34.33;;;17.77;;
11267;SDS011;49397;47.474;9.416;2022-12-07T03:56:24;37.27;;;17.40;;
11267;SDS011;49397;47.474;9.416;2022-12-07T03:58:51;37.93;;;18.10;;
11267;SDS011;49397;47.474;9.416;2022-12-07T04:01:18;30.70;;;17.47;;
11267;SDS011;49397;47.474;9.416;2022-12-07T04:03:44;29.93;;;15.80;;
11267;SDS011;49397;47.474;9.416;2022-12-07T04:06:09;35.60;;;17.93;;
11267;SDS011;49397;47.474;9.416;2022-12-07T04:08:35;33.17;;;15.93;;
11267;SDS011;49397;47.474;9.416;2022-12-07T04:11:00;35.07;;;16.80;;
11267;SDS011;49397;47.474;9.416;2022-12-07T04:13:26;34.53;;;18.27;;
11267;SDS011;49397;47.474;9.416;2022-12-07T04:15:52;33.80;;;19.03;;
11267;SDS011;49397;47.474;9.416;2022-12-07T04:18:17;35.47;;;16.60;;
11267;SDS011;49397;47.474;9.416;2022-12-07T04:20:43;32.17;;;16.60;;
11267;SDS011;49397;47.474;9.416;2022-12-07T04:23:08;33.30;;;16.83;;
11267;SDS011;49397;47.474;9.416;2022-12-07T04:25:33;28.00;;;15.17;;
11267;SDS011;49397;47.474;9.416;2022-12-07T04:27:59;32.23;;;16.60;;
11267;SDS011;49397;47.474;9.416;2022-12-07T04:30:24;30.57;;;16.77;;
11267;SDS011;49397;47.474;9.416;2022-12-07T04:32:50;26.63;;;14.57;;
11267;SDS011;49397;47.474;9.416;2022-12-07T04:35:15;37.37;;;17.73;;
11267;SDS011;49397;47.474;9.416;2022-12-07T04:37:41;32.03;;;16.77;;
11267;SDS011;49397;47.474;9.416;2022-12-07T04:40:07;34.87;;;17.03;;
11267;SDS011;49397;47.474;9.416;2022-12-07T04:42:36;30.87;;;15.83;;
11267;SDS011;49397;47.474;9.416;2022-12-07T04:45:02;35.27;;;16.60;;
11267;SDS011;49397;47.474;9.416;2022-12-07T04:47:27;32.27;;;16.17;;
11267;SDS011;49397;47.474;9.416;2022-12-07T04:49:53;28.67;;;15.67;;
11267;SDS011;49397;47.474;9.416;2022-12-07T04:52:18;29.00;;;17.03;;
11267;SDS011;49397;47.474;9.416;2022-12-07T04:54:44;28.97;;;16.43;;
11267;SDS011;49397;47.474;9.416;2022-12-07T04:57:09;33.00;;;16.03;;
11267;SDS011;49397;47.474;9.416;2022-12-07T04:59:35;35.90;;;15.53;;
11267;SDS011;49397;47.474;9.416;2022-12-07T05:02:00;31.47;;;17.40;;
11267;SDS011;49397;47.474;9.416;2022-12-07T05:04:26;26.13;;;15.60;;
11267;SDS011;49397;47.474;9.416;2022-12-07T05:06:51;28.73;;;16.70;;
11267;SDS011;49397;47.474;9.416;2022-12-07T05:09:17;25.50;;;15.27;;
11267;SDS011;49397;47.474;9.416;2022-12-07T05:11:42;25.50;;;15.17;;
11267;SDS011;49397;47.474;9.416;2022-12-07T05:14:20;22.93;;;14.53;;
11267;SDS011;49397;47.474;9.416;2022-12-07T05:16:47;27.67;;;15.80;;
11267;SDS011;49397;47.474;9.416;2022-12-07T05:19:15;29.47;;;15.43;;
11267;SDS011;49397;47.474;9.416;2022-12-07T05:21:40;30.30;;;16.50;;
11267;SDS011;49397;47.474;9.416;2022-12-07T05:24:06;26.40;;;16.23;;
11267;SDS011;49397;47.474;9.416;2022-12-07T05:26:33;29.40;;;16.37;;
11267;SDS011;49397;47.474;9.416;2022-12-07T05:28:59;31.70;;;17.50;;
11267;SDS011;49397;47.474;9.416;2022-12-07T05:31:25;34.87;;;17.83;;
11267;SDS011;49397;47.474;9.416;2022-12-07T05:33:51;30.53;;;17.07;;
11267;SDS011;49397;47.474;9.416;2022-12-07T05:36:17;27.57;;;15.47;;
11267;SDS011;49397;47.474;9.416;2022-12-07T05:38:43;25.73;;;16.03;;
11267;SDS011;49397;47.474;9.416;2022-12-07T05:41:09;31.13;;;16.07;;
11267;SDS011;49397;47.474;9.416;2022-12-07T05:43:59;28.87;;;15.33;;
11267;SDS011;49397;47.474;9.416;2022-12-07T05:46:25;25.23;;;15.33;;
11267;SDS011;49397;47.474;9.416;2022-12-07T05:48:51;26.77;;;15.50;;
11267;SDS011;49397;47.474;9.416;2022-12-07T05:51:16;32.47;;;17.30;;
11267;SDS011;49397;47.474;9.416;2022-12-07T05:53:42;29.87;;;15.33;;
11267;SDS011;49397;47.474;9.416;2022-12-07T05:56:08;31.83;;;18.17;;
11267;SDS011;49397;47.474;9.416;2022-12-07T05:58:33;36.73;;;16.97;;
11267;SDS011;49397;47.474;9.416;2022-12-07T06:01:17;29.80;;;15.80;;
11267;SDS011;49397;47.474;9.416;2022-12-07T06:03:43;29.50;;;16.77;;
11267;SDS011;49397;47.474;9.416;2022-12-07T06:06:10;30.17;;;15.97;;
11267;SDS011;49397;47.474;9.416;2022-12-07T06:08:35;31.77;;;17.00;;
11267;SDS011;49397;47.474;9.416;2022-12-07T06:11:00;32.90;;;17.77;;
11267;SDS011;49397;47.474;9.416;2022-12-07T06:13:45;28.10;;;14.97;;
11267;SDS011;49397;47.474;9.416;2022-12-07T06:16:10;32.47;;;16.87;;
11267;SDS011;49397;47.474;9.416;2022-12-07T06:18:36;27.23;;;15.60;;
11267;SDS011;49397;47.474;9.416;2022-12-07T06:21:01;28.33;;;15.63;;
11267;SDS011;49397;47.474;9.416;2022-12-07T06:23:27;31.57;;;17.67;;
11267;SDS011;49397;47.474;9.416;2022-12-07T06:25:52;30.83;;;16.43;;
11267;SDS011;49397;47.474;9.416;2022-12-07T06:28:17;31.47;;;16.20;;
11267;SDS011;49397;47.474;9.416;2022-12-07T06:30:43;29.73;;;16.43;;
11267;SDS011;49397;47.474;9.416;2022-12-07T06:33:08;31.43;;;16.30;;
11267;SDS011;49397;47.474;9.416;2022-12-07T06:35:34;30.43;;;16.43;;
11267;SDS011;49397;47.474;9.416;2022-12-07T06:37:59;33.27;;;17.33;;
11267;SDS011;49397;47.474;9.416;2022-12-07T06:40:25;31.30;;;17.00;;
11267;SDS011;49397;47.474;9.416;2022-12-07T06:42:50;30.60;;;16.37;;
11267;SDS011;49397;47.474;9.416;2022-12-07T06:45:16;30.10;;;16.77;;
11267;SDS011;49397;47.474;9.416;2022-12-07T06:47:41;31.60;;;16.80;;
11267;SDS011;49397;47.474;9.416;2022-12-07T06:50:07;30.93;;;16.90;;
11267;SDS011;49397;47.474;9.416;2022-12-07T06:52:33;34.33;;;18.87;;
11267;SDS011;49397;47.474;9.416;2022-12-07T06:54:59;33.90;;;18.77;;
11267;SDS011;49397;47.474;9.416;2022-12-07T06:57:24;35.37;;;18.57;;
11267;SDS011;49397;47.474;9.416;2022-12-07T06:59:50;35.77;;;18.77;;
11267;SDS011;49397;47.474;9.416;2022-12-07T07:02:16;37.90;;;18.97;;
11267;SDS011;49397;47.474;9.416;2022-12-07T07:04:42;36.90;;;19.40;;
11267;SDS011;49397;47.474;9.416;2022-12-07T07:07:07;42.33;;;19.53;;
11267;SDS011;49397;47.474;9.416;2022-12-07T07:09:33;39.03;;;19.20;;
11267;SDS011;49397;47.474;9.416;2022-12-07T07:11:58;36.67;;;18.37;;
11267;SDS011;49397;47.474;9.416;2022-12-07T07:14:23;40.03;;;20.80;;
11267;SDS011;49397;47.474;9.416;2022-12-07T07:16:49;38.17;;;18.60;;
11267;SDS011;49397;47.474;9.416;2022-12-07T07:19:14;34.97;;;19.17;;
11267;SDS011;49397;47.474;9.416;2022-12-07T07:21:40;32.73;;;18.30;;
11267;SDS011;49397;47.474;9.416;2022-12-07T07:24:05;33.97;;;18.43;;
11267;SDS011;49397;47.474;9.416;2022-12-07T07:26:31;39.87;;;20.37;;
11267;SDS011;49397;47.474;9.416;2022-12-07T07:28:57;34.67;;;18.20;;
11267;SDS011;49397;47.474;9.416;2022-12-07T07:31:22;36.33;;;19.63;;
11267;SDS011;49397;47.474;9.416;2022-12-07T07:33:48;34.77;;;17.43;;
11267;SDS011;49397;47.474;9.416;2022-12-07T07:36:13;33.03;;;17.77;;
11267;SDS011;49397;47.474;9.416;2022-12-07T07:38:39;35.57;;;18.37;;
11267;SDS011;49397;47.474;9.416;2022-12-07T07:41:04;31.80;;;16.63;;
11267;SDS011;49397;47.474;9.416;2022-12-07T07:43:30;31.70;;;18.10;;
11267;SDS011;49397;47.474;9.416;2022-12-07T07:45:55;37.33;;;17.73;;
11267;SDS011;49397;47.474;9.416;2022-12-07T07:48:21;33.97;;;17.07;;
11267;SDS011;49397;47.474;9.416;2022-12-07T07:50:47;30.93;;;17.30;;
11267;SDS011;49397;47.474;9.416;2022-12-07T07:53:13;32.40;;;17.17;;
11267;SDS011;49397;47.474;9.416;2022-12-07T07:55:39;34.57;;;17.03;;
11267;SDS011;49397;47.474;9.416;2022-12-07T07:58:04;33.07;;;17.80;;
11267;SDS011;49397;47.474;9.416;2022-12-07T08:00:29;33.93;;;17.60;;
11267;SDS011;49397;47.474;9.416;2022-12-07T08:02:55;34.23;;;18.53;;
11267;SDS011;49397;47.474;9.416;2022-12-07T08:05:21;35.27;;;17.17;;
11267;SDS011;49397;47.474;9.416;2022-12-07T08:07:46;30.67;;;17.67;;
11267;SDS011;49397;47.474;9.416;2022-12-07T08:10:12;28.03;;;16.00;;
11267;SDS011;49397;47.474;9.416;2022-12-07T08:12:39;35.20;;;18.50;;
11267;SDS011;49397;47.474;9.416;2022-12-07T08:15:27;32.70;;;17.00;;
11267;SDS011;49397;47.474;9.416;2022-12-07T08:17:54;28.20;;;16.40;;
11267;SDS011;49397;47.474;9.416;2022-12-07T08:20:20;27.93;;;16.10;;
11267;SDS011;49397;47.474;9.416;2022-12-07T08:22:45;35.83;;;17.53;;
11267;SDS011;49397;47.474;9.416;2022-12-07T08:25:11;33.30;;;17.33;;
11267;SDS011;49397;47.474;9.416;2022-12-07T08:27:36;36.03;;;18.63;;
11267;SDS011;49397;47.474;9.416;2022-12-07T08:30:02;33.07;;;16.27;;
11267;SDS011;49397;47.474;9.416;2022-12-07T08:32:28;34.47;;;18.10;;
11267;SDS011;49397;47.474;9.416;2022-12-07T08:34:53;37.87;;;17.27;;
11267;SDS011;49397;47.474;9.416;2022-12-07T08:37:19;31.33;;;17.70;;
11267;SDS011;49397;47.474;9.416;2022-12-07T08:39:44;38.13;;;19.00;;
11267;SDS011;49397;47.474;9.416;2022-12-07T08:42:10;35.07;;;17.93;;
11267;SDS011;49397;47.474;9.416;2022-12-07T08:44:35;32.93;;;17.17;;
11267;SDS011;49397;47.474;9.416;2022-12-07T08:47:02;33.10;;;16.07;;
11267;SDS011;49397;47.474;9.416;2022-12-07T08:49:32;35.50;;;17.40;;
11267;SDS011;49397;47.474;9.416;2022-12-07T08:52:01;39.83;;;18.67;;
11267;SDS011;49397;47.474;9.416;2022-12-07T08:54:29;34.23;;;16.20;;
11267;SDS011;49397;47.474;9.416;2022-12-07T08:56:55;44.03;;;18.40;;
11267;SDS011;49397;47.474;9.416;2022-12-07T08:59:21;32.40;;;17.10;;
11267;SDS011;49397;47.474;9.416;2022-12-07T09:01:47;37.83;;;16.33;;
11267;SDS011;49397;47.474;9.416;2022-12-07T09:04:13;33.97;;;17.53;;
11267;SDS011;49397;47.474;9.416;2022-12-07T09:06:38;31.43;;;15.70;;
11267;SDS011;49397;47.474;9.416;2022-12-07T09:09:04;34.93;;;16.53;;
11267;SDS011;49397;47.474;9.416;2022-12-07T09:11:31;30.57;;;15.73;;
11267;SDS011;49397;47.474;9.416;2022-12-07T09:13:57;29.53;;;15.40;;
11267;SDS011;49397;47.474;9.416;2022-12-07T09:16:22;38.73;;;17.00;;
11267;SDS011;49397;47.474;9.416;2022-12-07T09:18:48;36.80;;;16.23;;
11267;SDS011;49397;47.474;9.416;2022-12-07T09:21:13;37.70;;;16.67;;
11267;SDS011;49397;47.474;9.416;2022-12-07T09:23:39;33.27;;;16.03;;
11267;SDS011;49397;47.474;9.416;2022-12-07T09:26:07;28.87;;;15.33;;
11267;SDS011;49397;47.474;9.416;2022-12-07T09:28:33;32.87;;;17.07;;
11267;SDS011;49397;47.474;9.416;2022-12-07T09:30:59;35.93;;;16.03;;
11267;SDS011;49397;47.474;9.416;2022-12-07T09:33:24;30.30;;;16.17;;
11267;SDS011;49397;47.474;9.416;2022-12-07T09:35:50;32.83;;;15.63;;
11267;SDS011;49397;47.474;9.416;2022-12-07T09:38:17;35.97;;;17.50;;
11267;SDS011;49397;47.474;9.416;2022-12-07T09:40:43;34.73;;;16.87;;
11267;SDS011;49397;47.474;9.416;2022-12-07T09:43:14;30.30;;;15.03;;
11267;SDS011;49397;47.474;9.416;2022-12-07T09:45:42;34.57;;;16.27;;
11267;SDS011;49397;47.474;9.416;2022-12-07T09:48:14;32.23;;;16.03;;
11267;SDS011;49397;47.474;9.416;2022-12-07T09:50:43;31.07;;;15.67;;
11267;SDS011;49397;47.474;9.416;2022-12-07T09:53:12;31.20;;;16.53;;
11267;SDS011;49397;47.474;9.416;2022-12-07T09:55:59;31.50;;;16.03;;
11267;SDS011;49397;47.474;9.416;2022-12-07T09:58:27;30.00;;;14.30;;
11267;SDS011;49397;47.474;9.416;2022-12-07T10:00:56;35.60;;;16.27;;
11267;SDS011;49397;47.474;9.416;2022-12-07T10:03:27;31.00;;;14.13;;
11267;SDS011;49397;47.474;9.416;2022-12-07T10:05:54;33.60;;;14.73;;
11267;SDS011;49397;47.474;9.416;2022-12-07T10:08:20;30.43;;;15.27;;
11267;SDS011;49397;47.474;9.416;2022-12-07T10:10:49;27.53;;;13.63;;
11267;SDS011;49397;47.474;9.416;2022-12-07T10:13:21;29.30;;;15.60;;
11267;SDS011;49397;47.474;9.416;2022-12-07T10:15:58;26.93;;;14.80;;
11267;SDS011;49397;47.474;9.416;2022-12-07T10:18:37;28.23;;;13.70;;
11267;SDS011;49397;47.474;9.416;2022-12-07T10:21:13;26.87;;;13.60;;
11267;SDS011;49397;47.474;9.416;2022-12-07T10:31:52;22.57;;;12.87;;
11267;SDS011;49397;47.474;9.416;2022-12-07T10:42:20;25.37;;;11.40;;
11267;SDS011;49397;47.474;9.416;2022-12-07T10:56:32;26.30;;;13.00;;
11267;SDS011;49397;47.474;9.416;2022-12-07T11:01:57;25.13;;;12.90;;
11267;SDS011;49397;47.474;9.416;2022-12-07T11:04:56;24.00;;;11.57;;
11267;SDS011;49397;47.474;9.416;2022-12-07T11:13:23;22.83;;;11.97;;
11267;SDS011;49397;47.474;9.416;2022-12-07T11:24:12;29.70;;;16.40;;
11267;SDS011;49397;47.474;9.416;2022-12-07T11:26:55;27.90;;;16.67;;
11267;SDS011;49397;47.474;9.416;2022-12-07T11:37:25;26.73;;;14.07;;
11267;SDS011;49397;47.474;9.416;2022-12-07T11:39:59;23.97;;;12.80;;
11267;SDS011;49397;47.474;9.416;2022-12-07T11:42:29;20.83;;;11.00;;
11267;SDS011;49397;47.474;9.416;2022-12-07T11:45:09;23.77;;;12.00;;
11267;SDS011;49397;47.474;9.416;2022-12-07T11:50:47;18.03;;;10.30;;
11267;SDS011;49397;47.474;9.416;2022-12-07T11:54:19;18.10;;;10.20;;
11267;SDS011;49397;47.474;9.416;2022-12-07T11:56:22;17.03;;;10.67;;
11267;SDS011;49397;47.474;9.416;2022-12-07T11:59:00;16.73;;;10.07;;
11267;SDS011;49397;47.474;9.416;2022-12-07T12:01:35;16.17;;;9.70;;
11267;SDS011;49397;47.474;9.416;2022-12-07T12:06:52;17.13;;;9.03;;
11267;SDS011;49397;47.474;9.416;2022-12-07T12:09:34;14.67;;;9.13;;
11267;SDS011;49397;47.474;9.416;2022-12-07T12:25:47;12.03;;;8.27;;
11267;SDS011;49397;47.474;9.416;2022-12-07T12:33:31;9.80;;;7.07;;
11267;SDS011;49397;47.474;9.416;2022-12-07T12:36:18;11.57;;;7.67;;
11267;SDS011;49397;47.474;9.416;2022-12-07T12:38:51;13.83;;;8.13;;
11267;SDS011;49397;47.474;9.416;2022-12-07T12:44:01;15.10;;;8.43;;
11267;SDS011;49397;47.474;9.416;2022-12-07T12:48:54;13.80;;;7.97;;
11267;SDS011;49397;47.474;9.416;2022-12-07T12:51:37;15.20;;;8.37;;
11267;SDS011;49397;47.474;9.416;2022-12-07T12:54:05;14.47;;;8.27;;
11267;SDS011;49397;47.474;9.416;2022-12-07T12:56:40;13.70;;;8.00;;
11267;SDS011;49397;47.474;9.416;2022-12-07T13:01:46;12.97;;;8.70;;
11267;SDS011;49397;47.474;9.416;2022-12-07T13:07:47;12.33;;;7.80;;
11267;SDS011;49397;47.474;9.416;2022-12-07T13:12:56;16.33;;;9.60;;
11267;SDS011;49397;47.474;9.416;2022-12-07T13:15:44;17.20;;;10.23;;
11267;SDS011;49397;47.474;9.416;2022-12-07T13:20:50;18.37;;;10.27;;
11267;SDS011;49397;47.474;9.416;2022-12-07T13:23:20;16.50;;;9.47;;
11267;SDS011;49397;47.474;9.416;2022-12-07T13:25:56;19.37;;;10.83;;
11267;SDS011;49397;47.474;9.416;2022-12-07T13:28:44;19.90;;;11.30;;
11267;SDS011;49397;47.474;9.416;2022-12-07T13:31:43;22.93;;;11.13;;
11267;SDS011;49397;47.474;9.416;2022-12-07T13:36:56;15.73;;;10.13;;
11267;SDS011;49397;47.474;9.416;2022-12-07T13:39:23;20.20;;;10.87;;
11267;SDS011;49397;47.474;9.416;2022-12-07T13:41:52;18.03;;;10.70;;
11267;SDS011;49397;47.474;9.416;2022-12-07T13:44:20;19.73;;;11.27;;
11267;SDS011;49397;47.474;9.416;2022-12-07T13:49:25;22.90;;;10.37;;
11267;SDS011;49397;47.474;9.416;2022-12-07T13:51:52;18.00;;;10.03;;
11267;SDS011;49397;47.474;9.416;2022-12-07T13:54:19;18.20;;;10.07;;
11267;SDS011;49397;47.474;9.416;2022-12-07T13:56:51;15.20;;;9.80;;
11267;SDS011;49397;47.474;9.416;2022-12-07T14:01:46;21.57;;;10.53;;
11267;SDS011;49397;47.474;9.416;2022-12-07T14:04:32;18.57;;;11.03;;
11267;SDS011;49397;47.474;9.416;2022-12-07T14:07:00;16.57;;;9.77;;
11267;SDS011;49397;47.474;9.416;2022-12-07T14:09:27;19.63;;;10.07;;
11267;SDS011;49397;47.474;9.416;2022-12-07T14:11:56;16.77;;;9.80;;
11267;SDS011;49397;47.474;9.416;2022-12-07T14:14:23;17.60;;;9.77;;
11267;SDS011;49397;47.474;9.416;2022-12-07T14:16:56;18.47;;;10.37;;
11267;SDS011;49397;47.474;9.416;2022-12-07T14:22:31;20.53;;;10.70;;
11267;SDS011;49397;47.474;9.416;2022-12-07T14:28:01;17.33;;;9.07;;
11267;SDS011;49397;47.474;9.416;2022-12-07T14:30:27;16.47;;;9.17;;
11267;SDS011;49397;47.474;9.416;2022-12-07T14:32:58;17.27;;;9.90;;
11267;SDS011;49397;47.474;9.416;2022-12-07T14:35:26;16.90;;;9.63;;
11267;SDS011;49397;47.474;9.416;2022-12-07T14:37:53;19.83;;;11.53;;
11267;SDS011;49397;47.474;9.416;2022-12-07T14:40:22;19.43;;;9.90;;
11267;SDS011;49397;47.474;9.416;2022-12-07T14:42:54;16.13;;;9.53;;
11267;SDS011;49397;47.474;9.416;2022-12-07T14:45:32;16.27;;;9.20;;
11267;SDS011;49397;47.474;9.416;2022-12-07T14:47:57;15.97;;;9.43;;
11267;SDS011;49397;47.474;9.416;2022-12-07T14:50:23;17.33;;;9.97;;
11267;SDS011;49397;47.474;9.416;2022-12-07T14:52:52;13.43;;;9.23;;
11267;SDS011;49397;47.474;9.416;2022-12-07T14:55:28;13.20;;;8.53;;
11267;SDS011;49397;47.474;9.416;2022-12-07T14:57:55;15.10;;;9.03;;
11267;SDS011;49397;47.474;9.416;2022-12-07T15:00:22;15.73;;;8.47;;
11267;SDS011;49397;47.474;9.416;2022-12-07T15:02:49;11.87;;;7.97;;
11267;SDS011;49397;47.474;9.416;2022-12-07T15:05:16;14.07;;;8.37;;
11267;SDS011;49397;47.474;9.416;2022-12-07T15:07:42;13.30;;;7.97;;
11267;SDS011;49397;47.474;9.416;2022-12-07T15:10:16;16.07;;;9.43;;
11267;SDS011;49397;47.474;9.416;2022-12-07T15:12:43;12.77;;;7.90;;
11267;SDS011;49397;47.474;9.416;2022-12-07T15:15:08;19.60;;;10.17;;
11267;SDS011;49397;47.474;9.416;2022-12-07T15:17:34;14.33;;;8.60;;
11267;SDS011;49397;47.474;9.416;2022-12-07T15:20:00;16.77;;;9.10;;
11267;SDS011;49397;47.474;9.416;2022-12-07T15:22:25;14.33;;;8.83;;
11267;SDS011;49397;47.474;9.416;2022-12-07T15:24:51;13.53;;;8.47;;
11267;SDS011;49397;47.474;9.416;2022-12-07T15:27:16;15.50;;;9.53;;
11267;SDS011;49397;47.474;9.416;2022-12-07T15:29:42;15.40;;;9.30;;
11267;SDS011;49397;47.474;9.416;2022-12-07T15:32:07;18.50;;;9.33;;
11267;SDS011;49397;47.474;9.416;2022-12-07T15:34:33;15.63;;;9.53;;
11267;SDS011;49397;47.474;9.416;2022-12-07T15:36:59;16.03;;;8.73;;
11267;SDS011;49397;47.474;9.416;2022-12-07T15:39:24;17.53;;;9.77;;
11267;SDS011;49397;47.474;9.416;2022-12-07T15:41:50;13.73;;;8.83;;
11267;SDS011;49397;47.474;9.416;2022-12-07T15:44:15;14.60;;;8.67;;
11267;SDS011;49397;47.474;9.416;2022-12-07T15:46:59;14.27;;;8.93;;
11267;SDS011;49397;47.474;9.416;2022-12-07T15:49:25;18.13;;;9.87;;
11267;SDS011;49397;47.474;9.416;2022-12-07T15:51:51;17.17;;;9.77;;
11267;SDS011;49397;47.474;9.416;2022-12-07T15:54:21;16.50;;;9.33;;
11267;SDS011;49397;47.474;9.416;2022-12-07T15:56:51;15.97;;;10.07;;
11267;SDS011;49397;47.474;9.416;2022-12-07T15:59:18;13.53;;;8.87;;
11267;SDS011;49397;47.474;9.416;2022-12-07T16:01:44;15.23;;;9.30;;
11267;SDS011;49397;47.474;9.416;2022-12-07T16:04:10;17.47;;;10.43;;
11267;SDS011;49397;47.474;9.416;2022-12-07T16:06:36;15.17;;;8.50;;
11267;SDS011;49397;47.474;9.416;2022-12-07T16:09:02;16.07;;;9.30;;
11267;SDS011;49397;47.474;9.416;2022-12-07T16:11:28;14.57;;;9.10;;
11267;SDS011;49397;47.474;9.416;2022-12-07T16:13:54;16.20;;;9.53;;
11267;SDS011;49397;47.474;9.416;2022-12-07T16:16:20;13.37;;;9.07;;
11267;SDS011;49397;47.474;9.416;2022-12-07T16:18:47;15.63;;;10.23;;
11267;SDS011;49397;47.474;9.416;2022-12-07T16:21:14;14.60;;;9.47;;
11267;SDS011;49397;47.474;9.416;2022-12-07T16:23:40;17.57;;;9.00;;
11267;SDS011;49397;47.474;9.416;2022-12-07T16:26:07;16.10;;;8.80;;
11267;SDS011;49397;47.474;9.416;2022-12-07T16:28:37;14.47;;;9.33;;
11267;SDS011;49397;47.474;9.416;2022-12-07T16:31:04;17.17;;;9.70;;
11267;SDS011;49397;47.474;9.416;2022-12-07T16:33:32;14.53;;;9.40;;
11267;SDS011;49397;47.474;9.416;2022-12-07T16:35:59;15.30;;;9.87;;
11267;SDS011;49397;47.474;9.416;2022-12-07T16:38:25;18.17;;;9.10;;
11267;SDS011;49397;47.474;9.416;2022-12-07T16:40:51;17.63;;;9.90;;
11267;SDS011;49397;47.474;9.416;2022-12-07T16:43:16;17.23;;;8.70;;
11267;SDS011;49397;47.474;9.416;2022-12-07T16:45:42;13.10;;;9.07;;
11267;SDS011;49397;47.474;9.416;2022-12-07T16:48:07;15.47;;;9.30;;
11267;SDS011;49397;47.474;9.416;2022-12-07T16:50:33;14.13;;;9.50;;
11267;SDS011;49397;47.474;9.416;2022-12-07T16:52:58;15.53;;;9.03;;
11267;SDS011;49397;47.474;9.416;2022-12-07T16:55:24;14.73;;;8.30;;
11267;SDS011;49397;47.474;9.416;2022-12-07T16:57:49;15.43;;;10.00;;